Time;durP1;ratioP1;P1;durP2;ratioP2;P2;SDS_P1;SDS_P2;PMS_P1;PMS_P2;Temp;Humidity;BMP_temperature;BMP_pressure;BME280_temperature;BME280_humidity;BME280_pressure;Samples;Min_cycle;Max_cycle;Signal;HPM_P1;HPM_P2
2022/12/15 00:40:24;;;;;;;;;;;;;;;-6.24;100.00;100271.75;5006195;28;20052;-71
2022/12/15 00:42:50;;;;;;;77.45;40.10;;;;;;;-6.14;100.00;100269.66;5011778;28;19921;-73
2022/12/15 00:45:17;;;;;;;81.18;40.22;;;;;;;-6.11;100.00;100271.75;5008219;28;20053;-74
2022/12/15 00:47:43;;;;;;;77.80;39.25;;;;;;;-6.13;100.00;100279.34;5007231;28;20095;-71
2022/12/15 01:20:54;;;;;;;64.05;35.83;;;;;;;-6.04;100.00;100282.94;5014812;28;20046;-72
2022/12/15 01:23:21;;;;;;;65.78;35.83;;;;;;;-6.03;100.00;100278.34;5014569;28;20064;-73
2022/12/15 01:25:50;;;;;;;61.67;34.55;;;;;;;-6.05;100.00;100283.22;5008622;28;20581;-73
2022/12/15 01:28:18;;;;;;;70.40;36.40;;;;;;;-6.14;100.00;100277.72;5012341;28;20068;-72
2022/12/15 01:30:44;;;;;;;68.88;36.72;;;;;;;-6.13;100.00;100270.47;5010714;28;20376;-73
2022/12/15 01:33:11;;;;;;;68.80;36.35;;;;;;;-6.10;100.00;100272.56;5012184;28;20501;-72
2022/12/15 01:35:38;;;;;;;67.28;36.63;;;;;;;-6.05;100.00;100275.94;5013208;28;20055;-73
2022/12/15 01:38:04;;;;;;;71.88;38.05;;;;;;;-5.98;100.00;100299.78;5010604;28;20050;-72
2022/12/15 01:40:46;;;;;;;65.30;36.42;;;;;;;-5.99;100.00;100295.50;5009824;28;20133;-73
2022/12/15 01:43:21;;;;;;;68.93;35.92;;;;;;;-6.03;100.00;100298.00;5011599;28;20430;-72
2022/12/15 01:46:09;;;;;;;68.85;36.13;;;;;;;-6.01;100.00;100309.28;5015037;28;20170;-72
2022/12/15 01:48:47;;;;;;;74.30;36.88;;;;;;;-6.01;100.00;100313.88;5009537;28;20056;-73
2022/12/15 01:51:20;;;;;;;69.18;37.38;;;;;;;-6.03;100.00;100316.88;5010896;28;20053;-73
2022/12/15 01:53:56;;;;;;;77.78;39.38;;;;;;;-6.00;100.00;100321.63;5007784;28;20049;-73
2022/12/15 01:56:25;;;;;;;73.40;38.28;;;;;;;-5.97;100.00;100321.03;5014240;28;20104;-72
2022/12/15 01:58:55;;;;;;;72.75;37.97;;;;;;;-6.04;100.00;100309.84;5006769;28;20053;-72
2022/12/15 02:01:22;;;;;;;69.20;35.10;;;;;;;-5.98;100.00;100321.34;5011323;28;20085;-73
2022/12/15 02:03:49;;;;;;;70.50;37.83;;;;;;;-5.96;100.00;100327.22;5012229;28;20382;-72
2022/12/15 02:06:20;;;;;;;68.50;35.90;;;;;;;-5.97;100.00;100312.97;5011486;28;20194;-72
2022/12/15 02:08:49;;;;;;;80.90;41.88;;;;;;;-5.89;100.00;100331.16;5007746;28;20052;-72
2022/12/15 02:11:16;;;;;;;73.97;38.03;;;;;;;-5.90;100.00;100334.91;5010036;28;20085;-72
2022/12/15 02:13:48;;;;;;;76.10;39.42;;;;;;;-6.08;100.00;100338.50;5008958;28;20064;-70
2022/12/15 02:16:22;;;;;;;71.93;38.47;;;;;;;-6.20;100.00;100335.50;5012189;28;20057;-70
2022/12/15 02:19:22;;;;;;;71.63;38.58;;;;;;;-6.21;100.00;100339.25;5010719;28;20056;-72
2022/12/15 02:22:09;;;;;;;75.45;40.78;;;;;;;-6.09;100.00;100342.28;4991938;28;20506;-72
2022/12/15 02:24:51;;;;;;;67.60;36.88;;;;;;;-6.07;100.00;100333.91;5012217;28;20056;-73
2022/12/15 02:27:47;;;;;;;71.35;39.42;;;;;;;-5.99;100.00;100344.00;5008002;28;20131;-73
2022/12/15 02:30:20;;;;;;;79.25;39.10;;;;;;;-6.01;100.00;100343.50;5008057;28;20045;-72
2022/12/15 02:33:04;;;;;;;76.95;38.13;;;;;;;-6.03;100.00;100343.81;5014259;28;20061;-72
2022/12/15 02:35:36;;;;;;;75.72;39.05;;;;;;;-6.07;100.00;100342.00;5007084;28;20053;-72
2022/12/15 02:38:02;;;;;;;70.72;38.65;;;;;;;-6.02;100.00;100349.97;5008787;28;20045;-73
2022/12/15 02:40:29;;;;;;;76.50;38.55;;;;;;;-6.10;100.00;100346.09;5003910;28;20044;-73
2022/12/15 02:43:02;;;;;;;65.50;35.10;;;;;;;-6.21;100.00;100351.94;5009277;28;20045;-71
2022/12/15 02:45:38;;;;;;;68.68;35.05;;;;;;;-6.31;100.00;100349.41;5011948;28;20076;-73
2022/12/15 02:48:30;;;;;;;64.55;35.00;;;;;;;-6.22;100.00;100364.59;5010380;28;20055;-72
2022/12/15 02:51:17;;;;;;;64.82;35.88;;;;;;;-6.17;100.00;100355.63;5021627;28;20049;-70
2022/12/15 02:54:18;;;;;;;63.05;32.47;;;;;;;-6.15;100.00;100350.72;5028389;28;20045;-72
2022/12/15 02:56:51;;;;;;;66.30;35.10;;;;;;;-6.23;100.00;100351.41;5029949;28;20049;-70
2022/12/15 02:59:37;;;;;;;58.78;33.08;;;;;;;-6.24;100.00;100356.00;5028580;28;20057;-69
2022/12/15 03:02:07;;;;;;;62.88;31.50;;;;;;;-6.38;100.00;100352.47;5029007;28;20050;-71
2022/12/15 03:04:34;;;;;;;65.22;31.20;;;;;;;-6.45;100.00;100353.97;5029649;28;20157;-69
2022/12/15 03:07:08;;;;;;;63.67;33.13;;;;;;;-6.38;100.00;100357.84;5029777;28;20045;-70
2022/12/15 03:09:35;;;;;;;67.68;34.65;;;;;;;-6.27;100.00;100362.00;5027032;28;20041;-70
2022/12/15 03:12:01;;;;;;;60.25;32.45;;;;;;;-6.22;100.00;100364.59;5028002;28;20057;-69
2022/12/15 03:14:28;;;;;;;60.20;30.40;;;;;;;-6.30;100.00;100361.78;5050593;28;20534;-71
2022/12/15 03:16:54;;;;;;;60.10;31.73;;;;;;;-6.36;100.00;100355.69;5028200;28;20060;-71
2022/12/15 03:19:21;;;;;;;66.93;32.72;;;;;;;-6.25;100.00;100375.13;5029081;28;20053;-71
2022/12/15 03:21:48;;;;;;;66.10;34.70;;;;;;;-6.19;100.00;100379.34;5027633;28;20052;-69
2022/12/15 03:24:14;;;;;;;59.28;31.90;;;;;;;-6.13;100.00;100379.00;5029191;28;20062;-72
2022/12/15 03:26:42;;;;;;;66.22;32.67;;;;;;;-6.11;100.00;100378.69;5021841;28;20042;-69
2022/12/15 03:29:08;;;;;;;64.70;33.65;;;;;;;-6.09;100.00;100376.47;5025122;28;20061;-70
2022/12/15 03:31:35;;;;;;;60.97;32.50;;;;;;;-6.17;100.00;100377.94;5027833;28;20053;-69
2022/12/15 03:34:02;;;;;;;67.22;32.55;;;;;;;-6.16;100.00;100376.88;5033456;28;20053;-70
2022/12/15 03:36:28;;;;;;;58.42;30.95;;;;;;;-6.20;100.00;100375.88;5020592;28;20060;-70
2022/12/15 03:38:54;;;;;;;68.93;32.83;;;;;;;-6.12;100.00;100393.22;5028618;28;20079;-68
2022/12/15 03:41:21;;;;;;;61.88;33.13;;;;;;;-6.09;100.00;100389.94;5025750;28;20497;-72
2022/12/15 03:43:47;;;;;;;57.42;30.02;;;;;;;-6.11;100.00;100392.94;5021096;28;20057;-71
2022/12/15 03:46:15;;;;;;;62.67;31.45;;;;;;;-6.15;100.00;100388.44;5015051;28;20075;-69
2022/12/15 03:48:42;;;;;;;56.15;29.20;;;;;;;-6.30;100.00;100389.50;5028804;28;20160;-70
2022/12/15 03:51:09;;;;;;;57.53;29.33;;;;;;;-6.29;100.00;100383.03;5027714;28;20051;-70
2022/12/15 03:53:35;;;;;;;61.63;32.58;;;;;;;-6.20;100.00;100392.03;5028137;28;20045;-70
2022/12/15 03:56:02;;;;;;;62.97;32.05;;;;;;;-6.19;100.00;100390.13;5028109;28;20510;-72
2022/12/15 03:58:29;;;;;;;54.95;29.60;;;;;;;-6.13;100.00;100402.41;5033288;28;20128;-71
2022/12/15 04:00:55;;;;;;;58.55;29.80;;;;;;;-6.12;100.00;100401.31;5026531;28;20160;-69
2022/12/15 04:03:22;;;;;;;53.60;27.90;;;;;;;-6.20;100.00;100392.03;5028896;28;20050;-69
2022/12/15 04:05:49;;;;;;;53.15;28.70;;;;;;;-6.27;100.00;100388.91;5028018;28;20133;-69
2022/12/15 04:08:15;;;;;;;59.45;30.38;;;;;;;-6.26;100.00;100387.00;5027520;28;20053;-69
2022/12/15 04:10:42;;;;;;;55.80;29.77;;;;;;;-6.19;100.00;100399.00;5027870;28;20049;-69
2022/12/15 04:13:10;;;;;;;66.10;30.45;;;;;;;-6.14;100.00;100407.00;5027706;28;20532;-69
2022/12/15 04:15:38;;;;;;;68.03;28.50;;;;;;;-6.10;100.00;100408.03;5027650;28;20057;-70
2022/12/15 04:18:09;;;;;;;53.65;28.35;;;;;;;-6.11;100.00;100406.41;5031254;28;20045;-70
2022/12/15 04:20:37;;;;;;;62.03;30.65;;;;;;;-6.15;100.00;100404.59;5026634;28;20049;-70
2022/12/15 04:23:06;;;;;;;56.30;29.60;;;;;;;-6.13;100.00;100403.22;5027847;28;20065;-70
2022/12/15 05:32:08;;;;;;;52.65;27.30;;;;;;;-6.29;100.00;100444.94;5030365;28;20052;-69
2022/12/15 05:34:36;;;;;;;49.42;26.77;;;;;;;-6.26;100.00;100436.28;5023142;28;20083;-70
2022/12/15 05:37:06;;;;;;;58.47;30.35;;;;;;;-6.23;100.00;100437.59;5036660;28;20048;-69
2022/12/15 05:39:32;;;;;;;55.15;27.90;;;;;;;-6.23;100.00;100442.97;5027687;28;20049;-71
2022/12/15 05:42:00;;;;;;;57.42;27.25;;;;;;;-6.20;100.00;100445.88;5028574;28;20037;-69
2022/12/15 05:44:29;;;;;;;60.80;29.52;;;;;;;-6.19;100.00;100447.47;5026686;28;20093;-71
2022/12/15 05:46:55;;;;;;;54.92;28.20;;;;;;;-6.24;100.00;100444.06;5031044;28;20151;-71
2022/12/15 05:49:22;;;;;;;54.60;27.00;;;;;;;-6.24;100.00;100455.63;5030107;28;20053;-70
2022/12/15 05:51:48;;;;;;;55.83;28.55;;;;;;;-6.32;100.00;100456.28;5030269;28;20053;-69
2022/12/15 05:54:18;;;;;;;57.88;28.85;;;;;;;-6.27;100.00;100469.69;5030025;28;20518;-70
2022/12/15 05:56:45;;;;;;;51.17;26.80;;;;;;;-6.27;100.00;100475.06;5029706;28;20697;-68
2022/12/15 05:59:15;;;;;;;58.25;30.63;;;;;;;-6.25;100.00;100469.38;5028605;28;20081;-70
2022/12/15 06:01:42;;;;;;;57.35;28.95;;;;;;;-6.23;100.00;100476.09;5029242;28;20050;-70
2022/12/15 06:04:11;;;;;;;55.80;28.35;;;;;;;-6.22;100.00;100471.47;5029258;28;20049;-69
2022/12/15 06:06:39;;;;;;;54.22;28.23;;;;;;;-6.24;100.00;100471.78;5030487;28;20063;-69
2022/12/15 06:09:07;;;;;;;51.50;27.55;;;;;;;-6.23;100.00;100484.16;5030041;28;20057;-70
2022/12/15 06:11:33;;;;;;;56.17;28.27;;;;;;;-6.22;100.00;100485.75;5029384;28;20049;-72
2022/12/15 06:14:00;;;;;;;50.78;27.25;;;;;;;-6.23;100.00;100486.84;5025138;28;20053;-70
2022/12/15 06:16:27;;;;;;;59.53;30.00;;;;;;;-6.31;100.00;100481.34;5029150;28;20049;-70
2022/12/15 06:18:57;;;;;;;57.50;29.30;;;;;;;-6.33;100.00;100483.50;5030912;28;20061;-70
2022/12/15 06:21:30;;;;;;;55.03;27.75;;;;;;;-6.35;100.00;100481.09;5029288;28;20045;-71
2022/12/15 06:23:57;;;;;;;59.45;28.77;;;;;;;-6.34;100.00;100481.91;5032082;28;20488;-70
2022/12/15 06:26:29;;;;;;;51.85;27.60;;;;;;;-6.29;100.00;100487.22;5029753;28;20725;-72
2022/12/15 06:28:58;;;;;;;58.42;29.15;;;;;;;-6.28;100.00;100486.13;5025109;28;20053;-69
2022/12/15 06:31:25;;;;;;;57.22;27.45;;;;;;;-6.31;100.00;100475.94;5029059;28;20042;-71
2022/12/15 06:33:52;;;;;;;55.35;26.55;;;;;;;-6.30;100.00;100469.47;5029164;28;20057;-71
2022/12/15 06:36:27;;;;;;;53.53;27.83;;;;;;;-6.27;100.00;100476.97;5030537;28;20140;-69
2022/12/15 06:38:58;;;;;;;54.00;28.20;;;;;;;-6.29;100.00;100477.25;5029460;28;20049;-70
2022/12/15 06:41:24;;;;;;;53.42;29.27;;;;;;;-6.38;100.00;100470.91;5022326;28;20054;-69
2022/12/15 06:43:54;;;;;;;52.15;29.25;;;;;;;-6.41;100.00;100466.09;5026634;28;20432;-74
2022/12/15 06:46:22;;;;;;;55.47;29.45;;;;;;;-6.40;100.00;100465.03;5026817;28;20052;-72
2022/12/15 06:48:49;;;;;;;56.08;28.60;;;;;;;-6.41;100.00;100466.09;5031583;28;20076;-71
2022/12/15 06:51:16;;;;;;;56.42;28.83;;;;;;;-6.44;100.00;100471.28;5028482;28;20049;-69
2022/12/15 06:53:52;;;;;;;62.05;29.77;;;;;;;-6.41;100.00;100468.03;5028625;28;20131;-69
2022/12/15 06:56:29;;;;;;;58.83;32.15;;;;;;;-6.38;100.00;100475.53;5029182;28;20057;-71
2022/12/15 06:59:00;;;;;;;63.60;31.13;;;;;;;-6.37;100.00;100479.81;5027622;28;20050;-71
2022/12/15 07:01:28;;;;;;;62.42;29.88;;;;;;;-6.36;100.00;100478.69;5028510;28;20530;-70
2022/12/15 07:03:55;;;;;;;60.35;29.25;;;;;;;-6.37;100.00;100482.50;5026450;28;20053;-70
2022/12/15 07:06:22;;;;;;;59.30;30.80;;;;;;;-6.39;100.00;100480.09;5028965;28;20123;-71
2022/12/15 07:08:51;;;;;;;58.72;31.98;;;;;;;-6.43;100.00;100483.66;5030136;28;20132;-70
2022/12/15 07:11:19;;;;;;;63.03;30.48;;;;;;;-6.48;100.00;100476.44;5026009;28;20061;-71
2022/12/15 07:13:51;;;;;;;57.85;27.30;;;;;;;-6.43;100.00;100500.63;5027597;28;20053;-70
2022/12/15 07:16:18;;;;;;;62.45;29.35;;;;;;;-6.44;100.00;100499.03;5028577;28;20049;-73
2022/12/15 07:18:44;;;;;;;57.17;31.02;;;;;;;-6.38;100.00;100505.91;5029712;28;20056;-68
2022/12/15 07:21:11;;;;;;;58.55;28.90;;;;;;;-6.35;100.00;100510.72;5027198;28;20057;-70
2022/12/15 07:23:38;;;;;;;61.78;30.58;;;;;;;-6.35;100.00;100516.09;5027888;28;20052;-70
2022/12/15 07:26:20;;;;;;;55.90;28.80;;;;;;;-6.30;100.00;100523.31;5026591;28;20107;-70
2022/12/15 07:28:47;;;;;;;62.78;31.48;;;;;;;-6.30;100.00;100521.44;5028931;28;20053;-71
2022/12/15 07:31:14;;;;;;;63.35;27.95;;;;;;;-6.29;100.00;100514.13;5025736;28;20443;-71
2022/12/15 07:33:41;;;;;;;59.35;28.42;;;;;;;-6.20;100.00;100520.47;5029009;28;20099;-70
2022/12/15 07:36:08;;;;;;;58.10;29.60;;;;;;;-6.19;100.00;100514.00;5028092;28;20425;-70
2022/12/15 07:38:34;;;;;;;62.50;29.58;;;;;;;-6.22;100.00;100518.06;5028462;28;20655;-75
2022/12/15 07:41:03;;;;;;;62.10;30.60;;;;;;;-6.22;100.00;100520.75;5026122;28;20050;-72
2022/12/15 07:43:30;;;;;;;57.53;29.05;;;;;;;-6.20;100.00;100520.47;5025187;28;20049;-71
2022/12/15 07:45:59;;;;;;;63.17;30.90;;;;;;;-6.25;100.00;100521.34;5028484;28;20046;-71
2022/12/15 07:48:26;;;;;;;59.08;30.60;;;;;;;-6.21;100.00;100524.28;5028051;28;20052;-73
2022/12/15 07:50:56;;;;;;;56.35;32.75;;;;;;;-6.20;100.00;100532.06;5026962;28;20057;-72
2022/12/15 07:53:32;;;;;;;61.88;34.47;;;;;;;-6.18;100.00;100531.78;5022823;28;20108;-73
2022/12/15 07:55:59;;;;;;;63.05;34.28;;;;;;;-6.17;100.00;100536.84;5026146;28;20089;-72
2022/12/15 07:58:34;;;;;;;76.25;41.95;;;;;;;-6.22;100.00;100530.72;5028158;28;20708;-73
2022/12/15 08:01:03;;;;;;;89.15;48.83;;;;;;;-6.26;100.00;100543.97;5028393;28;20826;-71
2022/12/15 08:03:29;;;;;;;85.72;49.53;;;;;;;-6.31;100.00;100517.13;5021708;28;20049;-70
2022/12/15 08:05:56;;;;;;;88.10;51.55;;;;;;;-6.15;100.00;100531.16;5026443;28;20114;-72
2022/12/15 08:08:30;;;;;;;62.25;32.83;;;;;;;-6.10;100.00;100531.91;5029329;28;20057;-71
2022/12/15 08:10:57;;;;;;;61.25;32.67;;;;;;;-6.07;100.00;100535.91;5044614;28;20399;-70
2022/12/15 08:13:24;;;;;;;63.40;30.95;;;;;;;-6.00;100.00;100536.34;5026179;28;20049;-71
2022/12/15 08:16:11;;;;;;;65.80;32.85;;;;;;;-5.97;100.00;100541.94;5026758;28;20092;-72
2022/12/15 08:18:38;;;;;;;65.47;33.70;;;;;;;-5.94;100.00;100549.41;5015030;28;20548;-72
2022/12/15 08:21:07;;;;;;;66.28;35.05;;;;;;;-5.92;100.00;100557.22;5027438;28;20049;-71
2022/12/15 08:23:35;;;;;;;72.38;35.83;;;;;;;-5.90;100.00;100549.66;5025635;28;20490;-72
2022/12/15 08:26:06;;;;;;;61.88;30.80;;;;;;;-5.87;100.00;100547.16;5027835;28;20049;-71
2022/12/15 08:28:34;;;;;;;61.85;31.13;;;;;;;-5.83;100.00;100542.81;5027823;28;20045;-72
2022/12/15 08:31:05;;;;;;;61.65;33.58;;;;;;;-5.81;100.00;100537.09;5027232;28;20760;-72
2022/12/15 08:33:32;;;;;;;65.57;33.80;;;;;;;-5.73;100.00;100541.81;5026637;28;20060;-71
2022/12/15 08:36:01;;;;;;;66.75;33.28;;;;;;;-5.68;100.00;100547.09;5026120;28;20156;-72
2022/12/15 08:38:29;;;;;;;62.53;31.80;;;;;;;-5.65;100.00;100547.34;5024925;28;20072;-72
2022/12/15 08:40:56;;;;;;;59.45;31.08;;;;;;;-5.62;100.00;100552.13;5021153;28;20064;-74
2022/12/15 08:43:22;;;;;;;60.05;32.33;;;;;;;-5.56;100.00;100544.75;5024181;28;20056;-69
2022/12/15 08:45:49;;;;;;;61.53;31.38;;;;;;;-5.54;100.00;100546.06;5026684;28;20045;-69
2022/12/15 08:48:16;;;;;;;72.97;38.88;;;;;;;-5.49;100.00;100556.78;5035818;28;20299;-70
2022/12/15 08:50:44;;;;;;;71.95;37.63;;;;;;;-5.45;100.00;100557.78;5025992;28;20050;-72
2022/12/15 08:53:11;;;;;;;85.10;41.10;;;;;;;-5.33;100.00;100560.00;5028577;28;20119;-72
2022/12/15 08:56:11;;;;;;;60.13;32.05;;;;;;;-5.20;100.00;100567.31;5027145;28;20068;-70
2022/12/15 08:58:38;;;;;;;68.40;31.25;;;;;;;-5.10;100.00;100567.13;5017482;28;20049;-72
2022/12/15 09:01:07;;;;;;;61.72;30.02;;;;;;;-5.01;100.00;100564.53;5025547;28;20072;-71
2022/12/15 09:03:34;;;;;;;56.95;30.05;;;;;;;-4.92;100.00;100560.06;5031106;28;20124;-72
2022/12/15 09:06:03;;;;;;;65.03;32.30;;;;;;;-4.86;100.00;100558.88;5026547;28;20670;-72
2022/12/15 09:08:30;;;;;;;58.05;30.85;;;;;;;-4.73;100.00;100566.97;5029583;28;20681;-72
2022/12/15 09:10:58;;;;;;;69.25;32.92;;;;;;;-4.59;100.00;100570.44;5023350;28;20588;-72
2022/12/15 09:13:25;;;;;;;63.85;30.42;;;;;;;-4.39;100.00;100566.56;5026598;28;20045;-72
2022/12/15 09:16:00;;;;;;;60.92;30.08;;;;;;;-4.19;100.00;100579.63;5052501;28;20505;-71
2022/12/15 09:18:36;;;;;;;62.78;31.40;;;;;;;-4.03;100.00;100581.69;5029253;28;20812;-71
2022/12/15 09:21:05;;;;;;;69.95;33.55;;;;;;;-3.90;100.00;100588.97;5027230;28;20430;-72
2022/12/15 09:23:33;;;;;;;69.50;32.40;;;;;;;-3.75;100.00;100595.94;5030345;28;20422;-74
2022/12/15 09:26:06;;;;;;;49.72;19.80;;;;;;;-3.66;100.00;100594.91;5029709;28;20513;-70
2022/12/15 09:28:33;;;;;;;46.78;23.20;;;;;;;-3.54;100.00;100586.25;5028363;28;20052;-70
2022/12/15 09:31:03;;;;;;;60.88;33.63;;;;;;;-3.40;100.00;100595.91;5028416;28;20652;-72
2022/12/15 09:33:31;;;;;;;58.70;32.35;;;;;;;-3.29;100.00;100591.84;5033907;28;20049;-72
2022/12/15 09:35:59;;;;;;;75.68;34.13;;;;;;;-3.20;100.00;100597.31;5029391;28;20052;-73
2022/12/15 09:38:25;;;;;;;71.32;33.75;;;;;;;-3.06;100.00;100606.94;5030157;28;20067;-71
2022/12/15 09:40:52;;;;;;;64.68;29.90;;;;;;;-2.96;100.00;100614.00;5030058;28;20059;-70
2022/12/15 09:43:23;;;;;;;43.10;21.70;;;;;;;-2.92;100.00;100612.25;5040692;28;20045;-71
2022/12/15 09:46:26;;;;;;;87.95;41.10;;;;;;;-2.76;100.00;100616.97;5033572;28;20052;-72
2022/12/15 09:48:57;;;;;;;62.30;30.17;;;;;;;-2.70;100.00;100614.94;5028665;28;20049;-71
2022/12/15 09:51:38;;;;;;;14.00;8.25;;;;;;;-2.67;100.00;100625.13;5015045;28;20049;-72
2022/12/15 09:54:07;;;;;;;53.90;27.40;;;;;;;-2.57;100.00;100615.94;4998740;28;20049;-75
2022/12/15 09:56:49;;;;;;;46.63;23.08;;;;;;;-2.42;100.00;100638.00;5004981;28;20046;-72
2022/12/15 09:59:32;;;;;;;33.90;15.88;;;;;;;-2.37;100.00;100643.25;5000658;28;20600;-73
2022/12/15 10:02:01;;;;;;;61.25;28.23;;;;;;;-2.26;100.00;100636.44;5003480;28;20535;-72
2022/12/15 10:04:46;;;;;;;54.53;24.10;;;;;;;-2.22;100.00;100636.63;5009399;28;20049;-74
2022/12/15 10:07:45;;;;;;;54.05;27.17;;;;;;;-2.16;100.00;100636.16;5012119;28;20204;-74
2022/12/15 10:10:20;;;;;;;33.20;15.40;;;;;;;-2.10;100.00;100632.19;5000157;28;20055;-74
2022/12/15 10:12:52;;;;;;;58.65;31.15;;;;;;;-1.95;100.00;100637.19;5005976;28;20045;-75
2022/12/15 10:15:46;;;;;;;57.03;31.15;;;;;;;-1.83;100.00;100631.91;5012533;28;20067;-72
2022/12/15 10:18:24;;;;;;;40.70;17.92;;;;;;;-1.83;100.00;100645.47;5011431;28;20056;-72
2022/12/15 10:20:53;;;;;;;;;;;;;;;-1.64;100.00;100642.47;5013173;28;20139;-69
2022/12/15 10:23:20;;;;;;;45.03;21.80;;;;;;;-1.56;100.00;100655.25;5013436;28;19931;-75
2022/12/15 10:26:00;;;;;;;23.15;12.30;;;;;;;-1.48;100.00;100644.38;5035897;28;20561;-73
2022/12/15 10:29:04;;;;;;;56.38;26.48;;;;;;;-1.41;100.00;100654.78;5016142;28;20882;-74
2022/12/15 10:31:42;;;;;;;59.83;29.58;;;;;;;-1.24;100.00;100654.78;5018111;28;20049;-74
2022/12/15 10:34:17;;;;;;;34.92;16.45;;;;;;;-1.12;100.00;100650.28;5018005;28;20048;-75
2022/12/15 10:36:50;;;;;;;49.45;24.58;;;;;;;-0.98;100.00;100653.63;5013626;28;20045;-75
2022/12/15 10:39:16;;;;;;;59.65;30.75;;;;;;;-0.78;100.00;100644.78;5012435;28;20823;-75
2022/12/15 10:41:43;;;;;;;66.45;32.88;;;;;;;-0.67;100.00;100635.16;4997744;28;20049;-75
2022/12/15 10:44:25;;;;;;;52.88;27.52;;;;;;;-0.41;100.00;100635.06;4999442;28;20041;-74
2022/12/15 10:46:57;;;;;;;44.10;19.00;;;;;;;-0.11;100.00;100645.66;5000828;28;20195;-74
2022/12/15 10:49:24;;;;;;;58.80;31.10;;;;;;;0.93;100.00;100641.88;5002144;28;20053;-75
2022/12/15 10:51:56;;;;;;;38.58;20.15;;;;;;;2.48;100.00;100636.88;5000139;28;20073;-73
2022/12/15 10:54:29;;;;;;;50.42;26.65;;;;;;;3.61;100.00;100638.06;5001885;28;20046;-72
2022/12/15 10:57:13;;;;;;;49.47;22.02;;;;;;;4.32;100.00;100646.84;4999688;28;20053;-75
2022/12/15 10:59:40;;;;;;;46.08;21.00;;;;;;;4.70;97.56;100641.41;4998767;28;20049;-77
2022/12/15 11:02:28;;;;;;;34.15;14.82;;;;;;;4.96;90.26;100642.34;4999793;28;20057;-76
2022/12/15 11:04:55;;;;;;;26.48;12.25;;;;;;;5.62;83.67;100638.47;4989956;28;20615;-77
2022/12/15 11:07:22;;;;;;;51.33;25.13;;;;;;;6.65;80.71;100645.22;4999719;28;20160;-75
2022/12/15 11:09:56;;;;;;;26.95;12.25;;;;;;;6.12;69.37;100643.66;4996751;28;21029;-74
2022/12/15 11:15:22;;;;;;;17.25;8.98;;;;;;;6.03;71.80;100632.13;5009595;28;20057;-74
2022/12/15 11:18:00;;;;;;;54.65;23.83;;;;;;;6.34;69.66;100621.63;5013971;28;20049;-75
2022/12/15 11:20:34;;;;;;;39.90;18.58;;;;;;;6.30;66.64;100631.78;5012197;28;20057;-74
2022/12/15 11:23:37;;;;;;;30.75;13.57;;;;;;;6.85;67.34;100621.94;5012947;28;20055;-76
2022/12/15 11:26:16;;;;;;;48.30;24.23;;;;;;;7.13;63.41;100622.25;4999810;28;20061;-75
2022/12/15 11:28:49;;;;;;;42.53;20.05;;;;;;;6.82;62.43;100626.19;5005904;28;20056;-75
2022/12/15 11:31:29;;;;;;;27.08;11.95;;;;;;;6.95;61.76;100608.28;5013243;28;20127;-74
2022/12/15 11:33:56;;;;;;;29.80;13.13;;;;;;;6.95;61.19;100618.50;5010672;28;20045;-76
2022/12/15 11:37:13;;;;;;;20.15;8.02;;;;;;;7.16;59.96;100624.25;5012256;28;20472;-75
2022/12/15 11:39:59;;;;;;;55.38;27.45;;;;;;;6.47;62.56;100624.94;4977167;28;20068;-75
2022/12/15 11:42:50;;;;;;;17.65;7.90;;;;;;;5.34;66.17;100620.34;5011066;28;20223;-74
2022/12/15 11:45:40;;;;;;;17.95;7.65;;;;;;;4.77;71.38;100614.94;5011263;28;20843;-75
2022/12/15 11:48:12;;;;;;;48.15;21.80;;;;;;;4.83;71.77;100602.50;5012499;28;20223;-74
2022/12/15 11:50:50;;;;;;;16.48;7.32;;;;;;;4.67;73.02;100611.97;4996668;28;20107;-75
2022/12/15 11:53:48;;;;;;;26.90;11.82;;;;;;;4.39;73.68;100598.44;5010463;28;20072;-74
2022/12/15 11:56:26;;;;;;;30.10;14.20;;;;;;;4.33;76.59;100599.91;5011656;28;20068;-75
2022/12/15 11:59:21;;;;;;;31.15;15.05;;;;;;;5.20;73.03;100589.13;5006179;28;20061;-74
2022/12/15 12:02:21;;;;;;;25.80;9.75;;;;;;;7.31;61.16;100591.00;5008027;28;20989;-75
2022/12/15 12:05:15;;;;;;;19.23;8.82;;;;;;;7.71;55.98;100601.19;5006306;28;20044;-73
2022/12/15 12:07:53;;;;;;;25.10;10.65;;;;;;;8.09;55.23;100597.94;5006272;28;20049;-74
2022/12/15 12:10:44;;;;;;;16.27;7.55;;;;;;;8.68;51.44;100594.78;5013647;28;20056;-74
2022/12/15 12:13:19;;;;;;;47.17;24.58;;;;;;;10.45;51.13;100598.16;5020143;28;20042;-76
2022/12/15 12:16:00;;;;;;;33.67;13.05;;;;;;;10.05;46.42;100592.25;5012558;28;20050;-74
2022/12/15 12:18:36;;;;;;;50.63;25.50;;;;;;;11.19;45.67;100588.75;5013205;28;20053;-75
2022/12/15 12:21:14;;;;;;;49.45;24.00;;;;;;;12.56;43.46;100586.41;5011392;28;20171;-75
2022/12/15 12:23:47;;;;;;;38.85;18.27;;;;;;;11.26;43.77;100588.69;5011210;28;20050;-73
2022/12/15 12:26:44;;;;;;;52.90;25.55;;;;;;;11.69;42.38;100598.34;5009721;28;20057;-72
2022/12/15 12:29:36;;;;;;;51.25;24.58;;;;;;;11.78;40.73;100593.13;5009470;28;20053;-77
2022/12/15 12:32:13;;;;;;;5.38;2.75;;;;;;;10.48;42.87;100594.59;5006869;28;20054;-73
2022/12/15 12:35:06;;;;;;;42.70;20.10;;;;;;;10.87;42.68;100588.88;4998189;28;20063;-74
2022/12/15 12:38:02;;;;;;;48.25;24.92;;;;;;;11.50;42.82;100590.50;4997767;28;20063;-74
2022/12/15 12:41:02;;;;;;;43.65;21.38;;;;;;;11.71;41.56;100577.31;5001336;28;20052;-77
2022/12/15 12:43:36;;;;;;;38.20;17.73;;;;;;;11.02;41.93;100571.03;5009884;28;20410;-73
2022/12/15 12:46:22;;;;;;;44.93;24.57;;;;;;;11.39;42.47;100575.94;5009906;28;20049;-74
2022/12/15 12:49:25;;;;;;;44.47;22.40;;;;;;;11.35;42.05;100573.22;5021170;28;20312;-77
2022/12/15 12:51:55;;;;;;;17.02;9.10;;;;;;;10.84;41.90;100575.88;5001403;28;20042;-74
2022/12/15 12:54:31;;;;;;;52.20;27.63;;;;;;;10.96;42.62;100560.78;5000244;28;20049;-77
2022/12/15 12:56:58;;;;;;;52.30;24.65;;;;;;;10.48;43.97;100560.59;5012102;28;20063;-74
2022/12/15 12:59:27;;;;;;;21.33;10.07;;;;;;;10.45;42.44;100556.66;5007749;28;20053;-76
2022/12/15 13:02:15;;;;;;;55.05;24.88;;;;;;;10.57;42.85;100564.50;5007426;28;20050;-74
2022/12/15 13:04:49;;;;;;;48.78;25.27;;;;;;;11.26;42.93;100550.72;5012489;28;20049;-75
2022/12/15 13:07:37;;;;;;;19.63;11.20;;;;;;;10.67;42.49;100560.13;5000722;28;20159;-77
2022/12/15 13:10:06;;;;;;;24.27;11.18;;;;;;;10.64;43.36;100560.94;5011586;28;20889;-73
2022/12/15 13:12:48;;;;;;;55.95;25.75;;;;;;;11.09;42.57;100553.59;5011572;28;20128;-77
2022/12/15 13:15:27;;;;;;;38.13;18.70;;;;;;;11.18;41.46;100542.88;5003066;28;20155;-75
2022/12/15 13:18:03;;;;;;;34.50;13.80;;;;;;;11.63;41.00;100544.53;5009272;28;20045;-76
2022/12/15 13:20:32;;;;;;;19.85;9.15;;;;;;;10.10;42.28;100540.13;5009721;28;20083;-72
2022/12/15 13:23:20;;;;;;;17.73;7.85;;;;;;;10.52;42.07;100530.16;5010331;28;20063;-77
2022/12/15 13:25:53;;;;;;;27.35;11.85;;;;;;;10.57;42.51;100534.06;5009445;28;20596;-74
2022/12/15 13:28:41;;;;;;;28.73;13.57;;;;;;;10.90;40.65;100523.66;5001553;28;20160;-72
2022/12/15 13:31:17;;;;;;;21.77;7.82;;;;;;;11.00;40.75;100522.81;5000894;28;20045;-72
2022/12/15 13:34:12;;;;;;;;;;;;;;;11.36;40.54;100522.16;5003770;28;20049;-73
2022/12/15 13:36:39;;;;;;;47.28;24.65;;;;;;;12.96;41.25;100516.09;5002161;28;19925;-75
2022/12/15 13:39:11;;;;;;;48.17;23.92;;;;;;;13.47;38.57;100523.31;5000888;28;20050;-72
2022/12/15 13:41:44;;;;;;;19.98;8.05;;;;;;;11.64;39.17;100507.34;5003290;28;21947;-76
2022/12/15 13:44:38;;;;;;;47.83;25.35;;;;;;;11.67;39.99;100506.50;5002170;28;20049;-73
2022/12/15 13:47:10;;;;;;;39.70;18.70;;;;;;;10.97;40.77;100502.25;4999578;28;20524;-76
2022/12/15 13:49:50;;;;;;;49.75;26.13;;;;;;;11.94;41.61;100508.22;5001199;28;20049;-73
2022/12/15 13:52:29;;;;;;;54.05;27.67;;;;;;;13.25;39.86;100512.94;5000925;28;20048;-73